createdAt,value
2018-03-02T00:00:32.287Z,47.56
2018-03-02T00:03:00.399Z,47.79
2018-03-02T00:05:28.549Z,47.74
2018-03-02T00:07:56.643Z,48.15
2018-03-02T00:10:24.744Z,47.82
2018-03-02T00:12:52.858Z,48.05
2018-03-02T00:15:20.971Z,48.17
2018-03-02T00:17:49.084Z,48.28
2018-03-02T00:20:17.218Z,48.07
2018-03-02T00:22:45.656Z,48.27
2018-03-02T00:25:13.773Z,48.11
2018-03-02T00:27:41.894Z,48.32
2018-03-02T00:30:10.215Z,48.69
2018-03-02T00:32:38.352Z,48.85
2018-03-02T00:35:06.466Z,48.34
2018-03-02T00:37:34.596Z,48.45
2018-03-02T00:40:02.728Z,48.53
2018-03-02T00:42:30.858Z,48.54
2018-03-02T00:44:58.976Z,48.72
2018-03-02T00:47:27.079Z,48.86
2018-03-02T00:49:55.211Z,48.67
2018-03-02T00:52:23.308Z,48.40
2018-03-02T00:54:51.422Z,49.10
2018-03-02T00:57:22.646Z,49.16
2018-03-02T00:59:50.791Z,48.99
2018-03-02T01:02:18.914Z,49.68
2018-03-02T01:04:47.023Z,49.47
2018-03-02T01:07:15.182Z,49.24
2018-03-02T01:09:43.298Z,49.38
2018-03-02T01:12:11.409Z,49.55
2018-03-02T01:14:39.522Z,49.80
2018-03-02T01:17:07.631Z,49.25
2018-03-02T01:19:35.739Z,49.78
2018-03-02T01:22:03.859Z,49.93
2018-03-02T01:24:31.981Z,50.09
2018-03-02T01:27:00.094Z,49.88
2018-03-02T01:29:28.224Z,50.04
2018-03-02T01:31:56.335Z,50.18
2018-03-02T01:34:24.461Z,50.08
2018-03-02T01:36:52.604Z,50.21
2018-03-02T01:39:20.699Z,50.14
2018-03-02T01:41:48.819Z,49.86
2018-03-02T01:44:16.953Z,49.92
2018-03-02T01:46:45.060Z,50.44
2018-03-02T01:49:13.169Z,50.23
2018-03-02T01:51:47.936Z,50.24
2018-03-02T01:54:16.037Z,50.68
2018-03-02T01:56:44.143Z,50.24
2018-03-02T01:59:12.260Z,50.68
2018-03-02T02:01:40.366Z,50.72
2018-03-02T02:04:08.497Z,50.71
2018-03-02T02:06:36.599Z,50.70
2018-03-02T02:09:05.603Z,50.68
2018-03-02T02:11:33.729Z,50.91
2018-03-02T02:14:01.837Z,50.76
2018-03-02T02:16:29.964Z,50.94
2018-03-02T02:18:58.059Z,50.92
2018-03-02T02:21:26.163Z,51.11
2018-03-02T02:23:54.296Z,51.08
2018-03-02T02:26:22.398Z,50.85
2018-03-02T02:28:50.516Z,50.71
2018-03-02T02:31:18.640Z,51.26
2018-03-02T02:33:46.735Z,51.63
2018-03-02T02:36:14.843Z,50.99
2018-03-02T02:38:42.988Z,51.27
2018-03-02T02:41:11.183Z,50.99
2018-03-02T02:43:39.314Z,51.47
2018-03-02T02:46:07.431Z,51.73
2018-03-02T02:48:35.531Z,51.78
2018-03-02T02:51:03.634Z,51.94
2018-03-02T02:53:31.769Z,51.32
2018-03-02T02:55:59.875Z,51.67
2018-03-02T02:58:27.982Z,51.30
2018-03-02T03:00:56.122Z,51.58
2018-03-02T03:03:24.223Z,51.77
2018-03-02T03:05:52.332Z,51.06
2018-03-02T03:08:20.443Z,51.30
2018-03-02T03:10:48.554Z,51.10
2018-03-02T03:13:16.673Z,51.98
2018-03-02T03:15:44.793Z,51.67
2018-03-02T03:18:12.933Z,51.86
2018-03-02T03:20:41.026Z,52.16
2018-03-02T03:23:09.143Z,51.52
2018-03-02T03:25:37.278Z,51.47
2018-03-02T03:28:05.385Z,51.57
2018-03-02T03:30:33.503Z,51.82
2018-03-02T03:33:01.625Z,51.47
2018-03-02T03:35:29.831Z,51.89
2018-03-02T03:37:57.936Z,51.85
2018-03-02T03:40:26.060Z,52.66
2018-03-02T03:42:54.214Z,52.44
2018-03-02T03:45:22.342Z,52.64
2018-03-02T03:47:50.464Z,52.96
2018-03-02T03:50:18.605Z,52.83
2018-03-02T03:52:46.750Z,52.61
2018-03-02T03:55:14.858Z,52.27
2018-03-02T03:57:42.990Z,52.78
2018-03-02T04:00:11.121Z,52.89
2018-03-02T04:02:39.224Z,53.04
2018-03-02T04:05:08.237Z,53.16
2018-03-02T04:07:36.438Z,53.12
2018-03-02T04:10:04.501Z,53.35
2018-03-02T04:12:32.615Z,53.19
2018-03-02T04:15:00.745Z,54.08
2018-03-02T04:17:28.864Z,53.63
2018-03-02T04:19:57.000Z,53.72
2018-03-02T04:22:25.122Z,54.03
2018-03-02T04:24:53.244Z,53.97
2018-03-02T04:27:21.363Z,54.23
2018-03-02T04:29:49.501Z,54.52
2018-03-02T04:32:17.625Z,54.74
2018-03-02T04:34:45.764Z,54.38
2018-03-02T04:37:13.900Z,54.28
2018-03-02T04:39:41.995Z,54.79
2018-03-02T04:42:10.107Z,54.39
2018-03-02T04:44:38.238Z,54.79
2018-03-02T04:47:06.339Z,54.70
2018-03-02T04:49:34.462Z,54.50
2018-03-02T04:52:02.577Z,54.74
2018-03-02T04:54:30.719Z,54.39
2018-03-02T04:56:58.842Z,54.70
2018-03-02T04:59:26.946Z,54.98
2018-03-02T05:01:55.076Z,54.75
2018-03-02T05:04:23.212Z,54.70
2018-03-02T05:06:51.336Z,54.27
2018-03-02T05:09:19.541Z,54.59
2018-03-02T05:11:47.671Z,54.86
2018-03-02T05:14:15.789Z,55.02
2018-03-02T05:16:43.902Z,54.91
2018-03-02T05:19:12.060Z,55.08
2018-03-02T05:21:40.157Z,54.62
2018-03-02T05:24:08.263Z,54.62
2018-03-02T05:26:36.387Z,54.54
2018-03-02T05:29:04.499Z,55.00
2018-03-02T05:31:32.636Z,54.29
2018-03-02T05:34:00.749Z,54.94
2018-03-02T05:36:28.880Z,54.57
2018-03-02T05:38:56.993Z,54.25
2018-03-02T05:41:25.125Z,54.42
2018-03-02T05:43:53.249Z,54.14
2018-03-02T05:46:21.355Z,54.71
2018-03-02T05:48:49.494Z,54.51
2018-03-02T05:51:17.618Z,61.24
2018-03-02T05:53:45.749Z,54.18
2018-03-02T05:56:13.875Z,60.28
2018-03-02T05:58:41.992Z,54.77
2018-03-02T06:01:10.120Z,55.02
2018-03-02T06:03:38.244Z,55.18
2018-03-02T06:06:06.372Z,55.23
2018-03-02T06:08:34.501Z,55.06
2018-03-02T06:11:02.625Z,54.76
2018-03-02T06:13:30.741Z,54.83
2018-03-02T06:15:58.885Z,54.87
2018-03-02T06:18:27.040Z,55.12
2018-03-02T06:20:55.157Z,55.15
2018-03-02T06:23:23.312Z,55.52
2018-03-02T06:25:51.437Z,55.44
2018-03-02T06:28:19.585Z,55.45
2018-03-02T06:30:47.719Z,55.58
2018-03-02T06:33:15.839Z,55.06
2018-03-02T06:35:43.950Z,55.33
2018-03-02T06:38:12.081Z,55.35
2018-03-02T06:40:40.603Z,54.86
2018-03-02T06:43:08.731Z,54.81
2018-03-02T06:45:36.846Z,55.96
2018-03-02T06:48:04.959Z,55.75
2018-03-02T06:50:33.100Z,55.85
2018-03-02T06:53:01.207Z,55.05
2018-03-02T06:55:29.357Z,55.00
2018-03-02T06:57:57.468Z,55.33
2018-03-02T07:00:25.594Z,55.78
2018-03-02T07:02:53.746Z,55.40
2018-03-02T07:05:21.867Z,54.58
2018-03-02T07:07:49.971Z,54.79
2018-03-02T07:10:18.107Z,54.54
2018-03-02T07:12:46.215Z,53.39
2018-03-02T07:15:14.341Z,53.72
2018-03-02T07:17:42.455Z,53.17
2018-03-02T07:20:10.597Z,52.75
2018-03-02T07:22:38.710Z,52.92
2018-03-02T07:25:06.843Z,52.95
2018-03-02T07:27:34.979Z,51.66
2018-03-02T07:30:03.117Z,53.05
2018-03-02T07:32:31.235Z,52.62
2018-03-02T07:34:59.353Z,51.68
2018-03-02T07:37:27.508Z,52.25
2018-03-02T07:39:55.629Z,52.74
2018-03-02T07:42:23.749Z,53.26
2018-03-02T07:44:51.867Z,52.52
2018-03-02T07:47:19.967Z,51.12
2018-03-02T07:49:48.114Z,51.73
2018-03-02T07:52:16.211Z,51.01
2018-03-02T07:54:44.341Z,51.06
2018-03-02T07:57:12.453Z,51.54
2018-03-02T07:59:40.558Z,50.29
2018-03-02T08:02:08.685Z,49.80
2018-03-02T08:04:36.806Z,49.71
2018-03-02T08:07:04.938Z,50.65
2018-03-02T08:09:33.043Z,50.14
2018-03-02T08:12:01.177Z,49.05
2018-03-02T08:14:29.289Z,50.02
2018-03-02T08:16:57.417Z,48.73
2018-03-02T08:19:25.561Z,48.51
2018-03-02T08:21:53.673Z,48.31
2018-03-02T08:24:21.778Z,48.54
2018-03-02T08:26:49.903Z,47.20
2018-03-02T08:29:18.033Z,48.73
2018-03-02T08:31:46.164Z,47.93
2018-03-02T08:34:14.278Z,48.05
2018-03-02T08:36:42.404Z,46.74
2018-03-02T08:39:10.515Z,47.71
2018-03-02T08:41:38.650Z,48.19
2018-03-02T08:44:06.757Z,46.67
2018-03-02T08:46:34.865Z,45.75
2018-03-02T08:49:03.038Z,45.89
2018-03-02T08:51:31.175Z,46.12
2018-03-02T08:53:59.284Z,46.09
2018-03-02T08:56:27.409Z,46.86
2018-03-02T08:58:55.529Z,46.50
2018-03-02T09:01:23.649Z,46.73
2018-03-02T09:03:51.764Z,46.62
2018-03-02T09:06:19.871Z,47.77
2018-03-02T09:08:47.998Z,46.95
2018-03-02T09:11:16.146Z,47.49
2018-03-02T09:13:44.239Z,48.98
2018-03-02T09:16:12.381Z,48.85
2018-03-02T09:18:40.493Z,48.74
2018-03-02T09:21:08.618Z,48.72
2018-03-02T09:23:36.752Z,48.74
2018-03-02T09:26:05.129Z,49.14
2018-03-02T09:28:33.259Z,48.63
2018-03-02T09:31:01.386Z,48.21
2018-03-02T09:33:29.501Z,47.81
2018-03-02T09:35:57.620Z,48.08
2018-03-02T09:38:25.748Z,46.76
2018-03-02T09:40:54.210Z,46.83
2018-03-02T09:43:22.316Z,46.87
2018-03-02T09:45:50.436Z,48.09
2018-03-02T09:48:18.585Z,47.42
2018-03-02T09:50:46.689Z,46.80
2018-03-02T09:53:14.843Z,46.87
2018-03-02T09:55:42.963Z,47.54
2018-03-02T09:58:11.391Z,47.03
2018-03-02T10:00:45.833Z,45.80
2018-03-02T10:03:13.955Z,45.02
2018-03-02T10:05:42.054Z,45.55
2018-03-02T10:08:10.208Z,46.47
2018-03-02T10:10:38.328Z,45.64
2018-03-02T10:13:06.436Z,46.16
2018-03-02T10:15:34.560Z,45.67
2018-03-02T10:18:02.668Z,45.16
2018-03-02T10:20:30.773Z,43.93
2018-03-02T10:22:59.787Z,44.49
2018-03-02T10:25:27.899Z,44.10
2018-03-02T10:27:56.033Z,45.56
2018-03-02T10:30:24.155Z,44.89
2018-03-02T10:32:52.277Z,44.39
2018-03-02T10:35:20.431Z,44.51
2018-03-02T10:37:48.550Z,44.58
2018-03-02T10:40:16.677Z,44.78
2018-03-02T10:42:44.820Z,43.67
2018-03-02T10:45:12.941Z,43.58
2018-03-02T10:47:41.069Z,44.34
2018-03-02T10:50:09.187Z,43.55
2018-03-02T10:52:37.316Z,44.01
2018-03-02T10:55:05.432Z,43.17
2018-03-02T10:57:33.629Z,43.98
2018-03-02T11:00:01.736Z,44.10
2018-03-02T11:02:29.845Z,43.75
2018-03-02T11:05:03.536Z,42.95
2018-03-02T11:07:31.635Z,42.96
2018-03-02T11:09:59.738Z,42.66
2018-03-02T11:12:31.092Z,41.55
2018-03-02T11:14:59.219Z,41.86
2018-03-02T11:17:27.345Z,41.55
2018-03-02T11:19:55.448Z,42.05
2018-03-02T11:22:23.555Z,42.18
2018-03-02T11:24:51.683Z,42.74
2018-03-02T11:27:19.794Z,41.93
2018-03-02T11:29:47.890Z,41.58
2018-03-02T11:32:16.055Z,41.46
2018-03-02T11:34:44.205Z,40.82
2018-03-02T11:37:12.309Z,40.60
2018-03-02T11:39:40.469Z,40.55
2018-03-02T11:42:08.571Z,40.47
2018-03-02T11:44:36.672Z,39.31
2018-03-02T11:47:04.846Z,39.38
2018-03-02T11:49:32.901Z,40.12
2018-03-02T11:52:01.020Z,40.76
2018-03-02T11:54:29.188Z,40.63
2018-03-02T11:56:57.286Z,39.96
2018-03-02T11:59:27.376Z,40.19
2018-03-02T12:01:55.498Z,39.99
2018-03-02T12:04:23.604Z,40.27
2018-03-02T12:06:51.734Z,40.86
2018-03-02T12:09:19.861Z,40.29
2018-03-02T12:11:47.969Z,40.26
2018-03-02T12:14:16.088Z,40.27
2018-03-02T12:16:44.288Z,40.25
2018-03-02T12:19:12.419Z,40.78
2018-03-02T12:21:40.555Z,39.65
2018-03-02T12:24:08.660Z,39.87
2018-03-02T12:26:36.801Z,39.55
2018-03-02T12:29:04.920Z,39.04
2018-03-02T12:31:33.019Z,39.31
2018-03-02T12:34:01.136Z,39.31
2018-03-02T12:36:32.758Z,39.21
2018-03-02T12:39:00.891Z,39.04
2018-03-02T12:41:28.988Z,43.92
2018-03-02T12:43:57.124Z,38.65
2018-03-02T12:46:26.160Z,38.51
2018-03-02T12:48:54.264Z,38.88
2018-03-02T12:51:22.386Z,39.28
2018-03-02T12:53:50.629Z,39.58
2018-03-02T12:56:19.455Z,39.47
2018-03-02T12:58:47.590Z,39.60
2018-03-02T13:01:15.708Z,39.60
2018-03-02T13:03:43.893Z,39.48
2018-03-02T13:06:12.000Z,39.82
2018-03-02T13:08:40.136Z,39.19
2018-03-02T13:11:08.265Z,39.51
2018-03-02T13:13:36.379Z,39.74
2018-03-02T13:16:04.501Z,39.66
2018-03-02T13:18:42.480Z,39.12
2018-03-02T13:21:10.605Z,39.14
2018-03-02T13:23:38.719Z,39.80
2018-03-02T13:26:06.858Z,39.52
2018-03-02T13:28:46.784Z,39.11
2018-03-02T13:31:14.909Z,39.68
2018-03-02T13:33:54.913Z,39.82
2018-03-02T13:36:23.035Z,39.07
2018-03-02T13:38:51.154Z,39.61
2018-03-02T13:41:31.157Z,39.12
2018-03-02T13:44:02.505Z,39.08
2018-03-02T13:46:30.646Z,39.12
2018-03-02T13:49:10.533Z,39.63
2018-03-02T13:51:38.661Z,39.48
2018-03-02T13:54:06.787Z,39.26
2018-03-02T13:56:46.724Z,39.25
2018-03-02T13:59:14.849Z,39.33
2018-03-02T14:01:42.968Z,39.61
2018-03-02T14:04:23.103Z,38.72
2018-03-02T14:06:51.222Z,39.24
2018-03-02T14:09:19.354Z,39.22
2018-03-02T14:11:47.525Z,39.39
2018-03-02T14:14:15.647Z,39.55
2018-03-02T14:16:47.396Z,39.07
2018-03-02T14:19:15.534Z,39.44
2018-03-02T14:21:43.667Z,39.74
2018-03-02T14:24:11.786Z,39.55
2018-03-02T14:26:39.901Z,39.85
2018-03-02T14:29:08.149Z,39.52
2018-03-02T14:31:37.127Z,39.36
2018-03-02T14:34:05.308Z,39.75
2018-03-02T14:36:33.372Z,39.48
2018-03-02T14:39:01.500Z,39.12
2018-03-02T14:41:29.603Z,39.19
2018-03-02T14:43:57.722Z,39.10
2018-03-02T14:46:25.865Z,39.32
2018-03-02T14:48:53.994Z,39.46
2018-03-02T14:51:22.117Z,39.94
2018-03-02T14:53:50.254Z,38.77
2018-03-02T14:56:18.374Z,39.41
2018-03-02T14:58:46.496Z,39.73
2018-03-02T15:01:14.615Z,39.37
2018-03-02T15:03:42.710Z,39.87
2018-03-02T15:06:14.557Z,39.23
2018-03-02T15:08:42.700Z,39.79
2018-03-02T15:11:10.946Z,39.64
2018-03-02T15:13:39.083Z,39.90
2018-03-02T15:16:07.213Z,39.91
2018-03-02T15:18:35.319Z,39.82
2018-03-02T15:21:03.477Z,39.64
2018-03-02T15:23:31.875Z,39.87
2018-03-02T15:26:00.009Z,40.42
2018-03-02T15:28:28.149Z,40.05
2018-03-02T15:30:56.283Z,40.37
2018-03-02T15:33:24.387Z,40.32
2018-03-02T15:35:52.562Z,40.21
2018-03-02T15:38:20.674Z,40.40
2018-03-02T15:40:48.863Z,40.61
2018-03-02T15:43:17.009Z,40.51
2018-03-02T15:45:45.132Z,40.59
2018-03-02T15:48:13.259Z,40.59
2018-03-02T15:50:41.405Z,40.65
2018-03-02T15:53:09.531Z,40.98
2018-03-02T15:55:37.623Z,40.60
2018-03-02T15:58:05.744Z,40.84
2018-03-02T16:00:33.852Z,40.66
2018-03-02T16:03:01.983Z,40.86
2018-03-02T16:05:30.108Z,40.57
2018-03-02T16:07:58.226Z,40.59
2018-03-02T16:10:26.336Z,40.58
2018-03-02T16:12:54.471Z,40.69
2018-03-02T16:15:22.641Z,40.36
2018-03-02T16:17:50.772Z,40.32
2018-03-02T16:20:18.933Z,40.47
2018-03-02T16:22:47.040Z,40.50
2018-03-02T16:25:15.152Z,40.60
2018-03-02T16:27:43.272Z,40.14
2018-03-02T16:30:11.433Z,40.47
2018-03-02T16:32:39.574Z,40.28
2018-03-02T16:35:07.673Z,40.91
2018-03-02T16:37:36.379Z,40.66
2018-03-02T16:40:04.558Z,40.69
2018-03-02T16:42:32.681Z,40.66
2018-03-02T16:45:00.814Z,41.13
2018-03-02T16:47:28.973Z,40.87
2018-03-02T16:49:57.103Z,41.04
2018-03-02T16:52:25.235Z,41.11
2018-03-02T16:54:53.366Z,41.62
2018-03-02T16:57:21.560Z,42.19
2018-03-02T16:59:49.655Z,41.93
2018-03-02T17:02:17.896Z,41.85
2018-03-02T17:04:46.023Z,42.08
2018-03-02T17:07:14.177Z,41.97
2018-03-02T17:09:42.279Z,42.38
2018-03-02T17:12:10.425Z,42.42
2018-03-02T17:14:38.565Z,42.63
2018-03-02T17:17:09.705Z,42.25
2018-03-02T17:19:37.828Z,42.40
2018-03-02T17:22:06.030Z,42.78
2018-03-02T17:24:34.151Z,42.71
2018-03-02T17:27:02.393Z,43.05
2018-03-02T17:29:30.530Z,43.18
2018-03-02T17:31:58.610Z,42.93
2018-03-02T17:34:26.757Z,47.27
2018-03-02T17:36:54.860Z,42.69
2018-03-02T17:39:22.982Z,42.88
2018-03-02T17:41:51.116Z,43.16
2018-03-02T17:44:19.207Z,42.78
2018-03-02T17:46:47.323Z,42.98
2018-03-02T17:49:15.428Z,42.96
2018-03-02T17:51:43.553Z,42.95
2018-03-02T17:54:11.684Z,42.98
2018-03-02T17:56:39.841Z,43.36
2018-03-02T17:59:07.962Z,43.30
2018-03-02T18:01:36.078Z,42.95
2018-03-02T18:04:04.205Z,43.25
2018-03-02T18:06:32.330Z,43.41
2018-03-02T18:09:00.449Z,42.99
2018-03-02T18:11:28.584Z,43.42
2018-03-02T18:13:56.705Z,42.92
2018-03-02T18:16:24.817Z,43.19
2018-03-02T18:18:52.912Z,43.28
2018-03-02T18:21:21.047Z,43.32
2018-03-02T18:23:49.177Z,43.56
2018-03-02T18:26:17.434Z,43.49
2018-03-02T18:28:45.536Z,43.46
2018-03-02T18:31:13.653Z,43.45
2018-03-02T18:33:41.797Z,43.73
2018-03-02T18:36:09.925Z,43.45
2018-03-02T18:38:38.030Z,43.55
2018-03-02T18:41:06.205Z,43.72
2018-03-02T18:43:34.322Z,43.72
2018-03-02T18:46:02.450Z,44.00
2018-03-02T18:48:30.573Z,44.44
2018-03-02T18:50:58.682Z,44.35
2018-03-02T18:53:26.792Z,44.55
2018-03-02T18:55:54.896Z,44.57
2018-03-02T18:58:23.013Z,44.38
2018-03-02T19:00:51.159Z,44.88
2018-03-02T19:03:19.266Z,44.39
2018-03-02T19:05:47.383Z,44.58
2018-03-02T19:08:15.515Z,44.51
2018-03-02T19:10:43.681Z,44.62
2018-03-02T19:13:11.839Z,44.33
2018-03-02T19:15:39.969Z,44.58
2018-03-02T19:18:08.086Z,44.39
2018-03-02T19:20:36.198Z,44.56
2018-03-02T19:23:04.316Z,44.61
2018-03-02T19:25:32.491Z,44.65
2018-03-02T19:28:00.587Z,44.44
2018-03-02T19:30:28.729Z,44.77
2018-03-02T19:32:56.835Z,44.70
2018-03-02T19:35:24.928Z,45.16
2018-03-02T19:37:53.063Z,45.10
2018-03-02T19:40:21.178Z,44.53
2018-03-02T19:42:49.291Z,44.67
2018-03-02T19:45:17.438Z,44.74
2018-03-02T19:47:45.562Z,44.54
2018-03-02T19:50:13.762Z,44.62
2018-03-02T19:52:42.817Z,44.39
2018-03-02T19:55:10.920Z,44.45
2018-03-02T19:57:39.035Z,45.38
2018-03-02T20:00:07.177Z,44.65
2018-03-02T20:02:35.307Z,45.64
2018-03-02T20:05:03.413Z,45.34
2018-03-02T20:07:31.547Z,45.71
2018-03-02T20:09:59.652Z,47.34
2018-03-02T20:12:27.778Z,49.81
2018-03-02T20:14:55.905Z,50.29
2018-03-02T20:17:24.022Z,52.55
2018-03-02T20:19:52.165Z,53.15
2018-03-02T20:22:20.260Z,53.78
2018-03-02T20:24:48.362Z,54.35
2018-03-02T20:27:16.485Z,54.46
2018-03-02T20:29:44.592Z,55.04
2018-03-02T20:32:12.736Z,55.23
2018-03-02T20:34:40.858Z,55.44
2018-03-02T20:37:08.967Z,55.35
2018-03-02T20:39:37.082Z,54.52
2018-03-02T20:42:05.265Z,54.29
2018-03-02T20:44:33.408Z,54.04
2018-03-02T20:47:01.535Z,53.87
2018-03-02T20:49:29.690Z,53.73
2018-03-02T20:51:57.791Z,53.74
2018-03-02T20:54:25.906Z,53.70
2018-03-02T20:56:54.041Z,53.42
2018-03-02T20:59:22.145Z,53.52
2018-03-02T21:01:50.251Z,53.53
2018-03-02T21:04:18.365Z,53.69
2018-03-02T21:06:46.480Z,53.89
2018-03-02T21:09:14.596Z,53.48
2018-03-02T21:11:42.729Z,53.37
2018-03-02T21:14:10.846Z,53.56
2018-03-02T21:16:38.967Z,53.61
2018-03-02T21:19:07.084Z,53.64
2018-03-02T21:21:35.203Z,53.62
2018-03-02T21:24:03.326Z,53.32
2018-03-02T21:26:31.782Z,53.47
2018-03-02T21:28:59.902Z,54.10
2018-03-02T21:31:28.030Z,54.68
2018-03-02T21:33:56.127Z,55.93
2018-03-02T21:36:24.231Z,57.75
2018-03-02T21:38:52.344Z,58.21
2018-03-02T21:41:20.491Z,60.56
2018-03-02T21:43:48.769Z,61.48
2018-03-02T21:46:17.056Z,63.33
2018-03-02T21:48:45.175Z,64.23
2018-03-02T21:51:13.299Z,63.30
2018-03-02T21:53:41.414Z,64.20
2018-03-02T21:56:09.533Z,65.68
2018-03-02T21:58:37.636Z,66.19
2018-03-02T22:01:05.748Z,67.26
2018-03-02T22:03:33.844Z,66.22
2018-03-02T22:06:01.959Z,68.90
2018-03-02T22:08:30.151Z,68.86
2018-03-02T22:10:58.243Z,71.46
2018-03-02T22:13:26.373Z,72.31
2018-03-02T22:15:54.493Z,73.81
2018-03-02T22:18:26.226Z,73.65
2018-03-02T22:20:54.727Z,73.85
2018-03-02T22:23:22.853Z,73.39
2018-03-02T22:25:50.997Z,73.89
2018-03-02T22:28:19.130Z,75.33
2018-03-02T22:30:47.230Z,76.36
2018-03-02T22:33:15.341Z,76.61
2018-03-02T22:35:43.573Z,76.09
2018-03-02T22:38:11.703Z,77.97
2018-03-02T22:40:39.831Z,78.86
2018-03-02T22:43:07.961Z,78.78
2018-03-02T22:45:36.083Z,78.74
2018-03-02T22:48:04.220Z,79.65
2018-03-02T22:50:32.339Z,79.22
2018-03-02T22:53:00.486Z,79.60
2018-03-02T22:55:28.605Z,80.29
2018-03-02T22:57:56.752Z,80.02
2018-03-02T23:00:24.874Z,80.48
2018-03-02T23:02:52.995Z,81.75
2018-03-02T23:05:21.129Z,81.20
2018-03-02T23:07:49.274Z,82.38
2018-03-02T23:10:17.388Z,81.57
2018-03-02T23:12:45.503Z,81.51
2018-03-02T23:15:13.610Z,82.48
2018-03-02T23:17:41.737Z,82.86
2018-03-02T23:20:09.854Z,82.72
2018-03-02T23:22:37.967Z,82.86
2018-03-02T23:25:06.124Z,81.97
2018-03-02T23:27:34.273Z,81.88
2018-03-02T23:30:02.344Z,82.62
2018-03-02T23:32:30.487Z,82.58
2018-03-02T23:34:58.617Z,82.36
2018-03-02T23:37:26.742Z,83.03
2018-03-02T23:39:54.858Z,82.31
2018-03-02T23:42:22.979Z,80.96
2018-03-02T23:44:51.117Z,82.86
2018-03-02T23:47:19.229Z,82.84
2018-03-02T23:49:47.338Z,82.37
2018-03-02T23:52:15.455Z,82.29
2018-03-02T23:54:43.561Z,82.82
2018-03-02T23:57:11.726Z,82.69
2018-03-02T23:59:39.836Z,83.59
